Time;durP1;ratioP1;P1;durP2;ratioP2;P2;SDS_P1;SDS_P2;PMS_P1;PMS_P2;Temp;Humidity;BMP_temperature;BMP_pressure;BME280_temperature;BME280_humidity;BME280_pressure;Samples;Min_cycle;Max_cycle;Signal;HPM_P1;HPM_P2
2022/04/20 00:00:35;;;;;;;5.75;4.20;;;12.10;53.60;;;;;;5108460;28;20115;-71
2022/04/20 00:03:02;;;;;;;4.93;3.60;;;12.00;53.70;;;;;;5117060;27;20119;-72
2022/04/20 00:05:27;;;;;;;4.45;3.50;;;12.00;53.70;;;;;;5106682;28;20030;-72
2022/04/20 00:07:53;;;;;;;5.93;3.65;;;12.00;53.60;;;;;;5114439;27;20027;-72
2022/04/20 00:13:40;;;;;;;4.47;3.45;;;11.90;53.50;;;;;;5111004;27;20690;-71
2022/04/20 00:16:06;;;;;;;4.78;3.17;;;12.00;53.40;;;;;;5089702;28;20020;-71
2022/04/20 00:18:31;;;;;;;4.07;3.00;;;11.90;53.30;;;;;;5107958;27;20074;-73
2022/04/20 00:20:57;;;;;;;4.97;3.50;;;11.90;53.20;;;;;;5110651;27;20020;-73
2022/04/20 00:23:22;;;;;;;4.82;3.10;;;11.90;53.50;;;;;;5121339;27;20148;-71
2022/04/20 00:25:48;;;;;;;4.43;2.80;;;11.90;53.30;;;;;;5109655;28;20039;-72
2022/04/20 00:28:13;;;;;;;4.45;3.33;;;11.90;53.30;;;;;;5119359;27;20024;-71
2022/04/20 00:30:39;;;;;;;4.40;3.30;;;11.80;53.20;;;;;;5100449;28;20486;-70
2022/04/20 00:33:04;;;;;;;4.70;2.88;;;11.80;53.20;;;;;;5108797;28;20104;-69
2022/04/20 00:35:30;;;;;;;5.53;3.22;;;11.80;53.20;;;;;;5103346;28;20024;-69
2022/04/20 00:37:55;;;;;;;3.80;3.00;;;11.80;53.10;;;;;;5105179;28;20031;-70
2022/04/20 00:40:21;;;;;;;3.33;2.55;;;11.80;53.10;;;;;;5092374;27;20057;-70
2022/04/20 00:42:47;;;;;;;4.43;2.92;;;11.80;53.00;;;;;;5111057;27;20039;-74
2022/04/20 00:45:13;;;;;;;4.85;3.00;;;11.80;52.90;;;;;;5110549;27;20035;-72
2022/04/20 00:47:43;;;;;;;3.55;2.75;;;11.80;52.90;;;;;;5115606;27;20028;-74
2022/04/20 00:50:12;;;;;;;3.47;2.60;;;11.80;52.80;;;;;;5111456;27;20030;-73
2022/04/20 00:52:38;;;;;;;4.60;2.70;;;11.80;52.70;;;;;;5090033;28;20039;-73
2022/04/20 00:55:05;;;;;;;3.67;2.47;;;11.80;52.60;;;;;;5102543;28;20076;-72
2022/04/20 00:57:31;;;;;;;3.95;2.72;;;11.70;52.50;;;;;;5111481;28;20021;-71
2022/04/20 01:00:00;;;;;;;4.13;3.00;;;11.70;52.50;;;;;;5088307;28;20038;-70
2022/04/20 01:02:27;;;;;;;3.50;2.15;;;11.70;52.50;;;;;;5108806;27;20020;-70
2022/04/20 01:04:53;;;;;;;3.03;2.28;;;11.70;52.40;;;;;;5115793;27;20028;-71
2022/04/20 01:07:19;;;;;;;3.88;2.58;;;11.70;52.20;;;;;;5117464;27;20023;-71
2022/04/20 01:09:45;;;;;;;4.03;2.50;;;11.70;52.20;;;;;;5091497;28;20443;-71
2022/04/20 01:12:15;;;;;;;2.75;2.20;;;11.70;52.10;;;;;;5100269;28;20106;-71
2022/04/20 01:14:41;;;;;;;2.80;2.40;;;11.60;51.90;;;;;;5104626;27;20035;-71
2022/04/20 01:17:07;;;;;;;2.80;2.30;;;11.60;51.80;;;;;;5099329;28;20034;-71
2022/04/20 01:19:38;;;;;;;3.47;2.20;;;11.60;51.70;;;;;;5111021;28;20036;-72
2022/04/20 01:22:04;;;;;;;3.63;2.40;;;11.60;51.70;;;;;;5082742;27;20098;-72
2022/04/20 01:24:30;;;;;;;2.42;2.15;;;11.60;51.60;;;;;;5109738;27;20537;-69
2022/04/20 01:26:56;;;;;;;3.15;2.30;;;11.60;51.50;;;;;;5104738;27;20142;-69
2022/04/20 01:29:22;;;;;;;3.60;2.40;;;11.60;51.50;;;;;;5116706;27;20035;-70
2022/04/20 01:31:48;;;;;;;3.40;2.30;;;11.50;51.40;;;;;;5088397;28;20035;-70
2022/04/20 01:34:13;;;;;;;2.63;2.35;;;11.50;51.40;;;;;;5100373;28;20027;-70
2022/04/20 01:36:39;;;;;;;4.25;2.20;;;11.50;51.40;;;;;;5110851;27;20405;-71
2022/04/20 01:39:05;;;;;;;3.60;2.25;;;11.50;51.30;;;;;;5103408;28;20026;-70
2022/04/20 01:41:30;;;;;;;4.45;2.47;;;11.40;51.30;;;;;;5100472;28;20098;-71
2022/04/20 01:43:56;;;;;;;2.70;2.40;;;11.50;51.20;;;;;;5110151;28;20027;-69
2022/04/20 01:46:22;;;;;;;3.25;2.20;;;11.40;51.20;;;;;;5107010;28;20023;-72
2022/04/20 01:48:47;;;;;;;2.78;2.17;;;11.40;51.20;;;;;;5104816;28;20514;-72
2022/04/20 01:53:57;;;;;;;3.60;2.45;;;11.40;51.20;;;;;;5107424;28;20027;-71
2022/04/20 01:56:22;;;;;;;3.00;2.30;;;11.30;51.10;;;;;;5106071;28;20023;-71
2022/04/20 01:58:48;;;;;;;3.85;2.25;;;11.30;51.10;;;;;;5103802;28;20035;-72
2022/04/20 02:03:57;;;;;;;4.03;2.60;;;11.20;51.20;;;;;;5106529;28;20089;-70
2022/04/20 02:06:22;;;;;;;2.80;2.08;;;11.10;51.30;;;;;;5088578;28;20486;-69
2022/04/20 02:08:48;;;;;;;3.13;2.20;;;11.10;51.30;;;;;;5109531;28;20537;-72
2022/04/20 02:11:13;;;;;;;2.45;1.77;;;11.10;51.20;;;;;;5102480;28;20027;-71
2022/04/20 02:13:39;;;;;;;3.60;2.40;;;11.10;51.10;;;;;;5096912;27;20143;-69
2022/04/20 02:16:05;;;;;;;5.72;3.50;;;11.00;51.20;;;;;;5094027;28;20020;-69
2022/04/20 02:18:31;;;;;;;6.07;3.83;;;11.00;51.30;;;;;;5102908;28;20020;-69
2022/04/20 02:20:56;;;;;;;4.03;2.72;;;10.90;51.30;;;;;;5099391;28;20038;-69
2022/04/20 02:23:22;;;;;;;5.00;2.70;;;10.80;51.40;;;;;;5110078;28;20030;-70
2022/04/20 02:25:47;;;;;;;4.78;2.88;;;10.80;51.20;;;;;;5106812;28;20102;-70
2022/04/20 02:28:13;;;;;;;5.13;2.50;;;10.70;51.10;;;;;;5105726;28;20024;-71
2022/04/20 02:30:38;;;;;;;3.80;2.80;;;10.70;51.00;;;;;;5102510;28;20091;-70
2022/04/20 02:33:04;;;;;;;3.13;2.22;;;10.70;50.90;;;;;;5104186;28;20026;-71
2022/04/20 02:35:31;;;;;;;9.77;5.97;;;10.70;50.80;;;;;;5104375;28;20538;-71
2022/04/20 02:37:56;;;;;;;7.20;4.07;;;10.80;50.60;;;;;;5113396;28;20012;-71
2022/04/20 02:40:22;;;;;;;4.20;2.50;;;10.80;50.50;;;;;;5118094;28;20027;-71
2022/04/20 02:42:48;;;;;;;2.65;2.17;;;10.70;50.40;;;;;;5103839;28;20061;-71
2022/04/20 02:45:16;;;;;;;3.60;2.33;;;10.80;50.40;;;;;;5080370;28;20048;-72
2022/04/20 02:47:41;;;;;;;4.70;2.00;;;10.80;50.20;;;;;;5104439;28;20425;-73
2022/04/20 02:50:07;;;;;;;2.72;1.90;;;10.80;50.10;;;;;;5110057;28;20077;-70
2022/04/20 02:52:33;;;;;;;2.90;2.05;;;10.80;50.00;;;;;;5083468;28;20114;-70
2022/04/20 02:54:58;;;;;;;2.65;1.88;;;10.80;50.00;;;;;;5096655;28;20107;-73
2022/04/20 02:57:24;;;;;;;2.25;1.88;;;10.80;50.00;;;;;;5089950;28;20063;-70
2022/04/20 02:59:49;;;;;;;3.65;2.03;;;10.80;50.00;;;;;;5085486;28;20035;-69
2022/04/20 03:02:15;;;;;;;3.20;1.90;;;10.90;50.10;;;;;;5119078;28;20042;-70
2022/04/20 03:04:40;;;;;;;2.35;1.90;;;10.90;50.10;;;;;;5125727;28;20046;-72
2022/04/20 03:07:06;;;;;;;2.90;1.80;;;10.80;50.00;;;;;;5097378;28;20019;-70
2022/04/20 03:09:32;;;;;;;1.95;1.70;;;10.80;50.00;;;;;;5108280;28;20370;-71
2022/04/20 03:11:58;;;;;;;3.20;2.42;;;10.80;50.10;;;;;;5105532;28;20089;-72
2022/04/20 03:14:24;;;;;;;2.70;1.80;;;10.80;50.20;;;;;;5101231;28;20095;-72
2022/04/20 03:16:49;;;;;;;2.80;1.90;;;10.70;50.30;;;;;;5105452;28;20023;-72
2022/04/20 03:19:15;;;;;;;3.10;1.98;;;10.70;50.30;;;;;;5107360;28;20016;-71
2022/04/20 03:21:40;;;;;;;5.28;2.33;;;10.60;50.40;;;;;;5107935;28;20146;-72
2022/04/20 03:24:06;;;;;;;4.05;2.40;;;10.50;50.90;;;;;;5111824;28;20047;-71
2022/04/20 03:26:31;;;;;;;3.40;2.30;;;10.50;51.10;;;;;;5106000;27;20446;-69
2022/04/20 03:28:57;;;;;;;3.53;2.42;;;10.40;51.00;;;;;;5110571;28;20355;-70
2022/04/20 03:31:23;;;;;;;3.88;2.10;;;10.40;51.20;;;;;;5106021;27;20429;-68
2022/04/20 03:33:48;;;;;;;2.60;2.15;;;10.40;51.40;;;;;;5119442;27;20035;-75
2022/04/20 03:36:15;;;;;;;3.90;2.10;;;10.30;51.40;;;;;;5093375;28;20038;-72
2022/04/20 03:38:40;;;;;;;2.80;2.00;;;10.30;51.40;;;;;;5113083;27;20031;-71
2022/04/20 03:41:06;;;;;;;3.05;2.30;;;10.30;51.50;;;;;;5104475;28;20081;-71
2022/04/20 03:43:32;;;;;;;3.15;2.47;;;10.20;51.80;;;;;;5112955;28;20043;-71
2022/04/20 03:45:58;;;;;;;3.40;2.60;;;10.10;52.20;;;;;;5108519;28;20036;-73
2022/04/20 03:48:24;;;;;;;3.63;2.50;;;10.00;52.50;;;;;;5096112;28;20020;-72
2022/04/20 03:50:50;;;;;;;3.65;2.30;;;9.90;52.90;;;;;;5078244;28;20085;-73
2022/04/20 03:53:16;;;;;;;4.15;2.30;;;9.90;52.80;;;;;;5102342;28;20149;-71
2022/04/20 03:55:43;;;;;;;4.18;2.75;;;9.90;52.80;;;;;;5084211;28;20503;-70
2022/04/20 03:58:08;;;;;;;4.47;2.63;;;9.80;53.40;;;;;;5101912;28;20517;-69
2022/04/20 04:00:34;;;;;;;2.78;2.13;;;9.80;53.30;;;;;;5107298;28;20055;-70
2022/04/20 04:02:59;;;;;;;2.83;2.13;;;9.80;53.10;;;;;;5114464;27;20156;-71
2022/04/20 04:05:25;;;;;;;4.97;2.25;;;9.80;52.90;;;;;;5106424;28;20632;-71
2022/04/20 04:07:51;;;;;;;2.20;2.00;;;9.80;52.90;;;;;;5110321;28;20023;-71
2022/04/20 04:10:18;;;;;;;3.88;2.50;;;9.80;52.80;;;;;;5110924;27;20019;-71
2022/04/20 04:12:44;;;;;;;3.30;2.20;;;9.70;53.10;;;;;;5108823;28;20490;-70
2022/04/20 04:15:09;;;;;;;2.75;2.10;;;9.70;53.10;;;;;;5112027;27;20026;-70
2022/04/20 04:17:35;;;;;;;3.00;2.10;;;9.80;53.00;;;;;;5110586;27;20031;-70
2022/04/20 04:20:01;;;;;;;4.78;2.50;;;9.80;52.90;;;;;;5108983;27;20486;-70
2022/04/20 04:22:26;;;;;;;2.75;2.25;;;9.80;53.00;;;;;;5111176;27;20087;-72
2022/04/20 04:24:53;;;;;;;2.95;2.22;;;9.70;53.20;;;;;;5110554;28;20051;-69
2022/04/20 04:27:19;;;;;;;2.63;2.28;;;9.70;53.30;;;;;;5103430;28;20024;-70
2022/04/20 04:29:45;;;;;;;3.50;2.55;;;9.70;53.20;;;;;;5100030;28;20016;-70
2022/04/20 04:32:12;;;;;;;3.67;2.67;;;9.60;53.40;;;;;;5107632;28;20087;-71
2022/04/20 04:34:39;;;;;;;2.78;2.20;;;9.60;53.60;;;;;;5108474;28;20028;-69
2022/04/20 04:37:05;;;;;;;2.90;2.10;;;9.60;53.40;;;;;;5102700;28;20019;-69
2022/04/20 04:39:30;;;;;;;3.72;2.20;;;9.60;53.40;;;;;;5107311;28;20438;-68
2022/04/20 04:42:02;;;;;;;3.25;2.10;;;9.60;53.50;;;;;;5102088;28;20074;-69
2022/04/20 04:44:28;;;;;;;3.22;2.17;;;9.60;53.20;;;;;;5106842;28;20504;-69
2022/04/20 04:49:38;;;;;;;4.05;2.10;;;9.60;53.60;;;;;;5100873;28;20081;-70
2022/04/20 04:52:06;;;;;;;2.65;2.05;;;9.60;53.30;;;;;;5101203;28;20028;-72
2022/04/20 04:54:33;;;;;;;2.72;2.05;;;9.70;53.30;;;;;;5112038;28;20023;-74
2022/04/20 04:56:59;;;;;;;2.97;2.22;;;9.70;53.30;;;;;;5088425;28;20454;-73
2022/04/20 04:59:24;;;;;;;2.65;2.00;;;9.70;53.20;;;;;;5090965;28;20103;-72
2022/04/20 05:01:50;;;;;;;2.85;2.00;;;9.70;53.00;;;;;;5106445;28;20504;-71
2022/04/20 05:04:15;;;;;;;2.85;2.30;;;9.80;53.00;;;;;;5104021;27;20023;-73
2022/04/20 05:06:42;;;;;;;3.88;1.95;;;9.80;53.00;;;;;;5081934;28;20486;-69
2022/04/20 05:09:08;;;;;;;3.10;1.85;;;9.80;53.00;;;;;;5106236;28;20031;-69
2022/04/20 05:11:33;;;;;;;3.33;2.38;;;9.80;53.00;;;;;;5106657;28;20091;-69
2022/04/20 05:13:59;;;;;;;2.75;2.10;;;9.80;53.10;;;;;;5110263;28;20027;-71
2022/04/20 05:16:25;;;;;;;2.20;1.60;;;9.80;52.90;;;;;;5109131;28;20038;-71
2022/04/20 05:18:51;;;;;;;2.20;1.70;;;9.90;52.70;;;;;;5105082;28;20028;-70
2022/04/20 05:21:17;;;;;;;3.70;2.33;;;9.90;52.60;;;;;;5097377;28;20028;-69
2022/04/20 05:23:43;;;;;;;2.72;1.90;;;9.90;52.70;;;;;;5105572;28;20105;-72
2022/04/20 05:26:08;;;;;;;2.63;2.00;;;9.90;52.60;;;;;;5109403;28;20031;-71
2022/04/20 05:28:34;;;;;;;2.50;1.70;;;9.90;52.70;;;;;;5091701;27;20114;-71
2022/04/20 05:30:59;;;;;;;2.03;1.83;;;10.20;52.70;;;;;;5089507;27;20031;-72
2022/04/20 05:33:25;;;;;;;2.80;1.90;;;11.10;51.60;;;;;;5113584;27;20023;-70
2022/04/20 05:35:50;;;;;;;3.03;2.15;;;12.20;49.60;;;;;;5092048;28;20384;-72
2022/04/20 05:43:44;;;;;;;2.80;2.00;;;14.80;44.10;;;;;;5103823;28;20414;-72
2022/04/20 05:46:10;;;;;;;3.13;2.10;;;15.30;42.70;;;;;;5105605;28;20027;-72
2022/04/20 05:48:36;;;;;;;2.47;1.80;;;15.50;41.80;;;;;;5102395;28;20032;-72
2022/04/20 05:51:01;;;;;;;2.90;1.90;;;15.40;41.00;;;;;;5104721;27;20143;-73
2022/04/20 05:53:27;;;;;;;2.40;1.80;;;14.80;42.00;;;;;;5090150;28;20019;-73
2022/04/20 05:55:53;;;;;;;2.20;1.75;;;14.60;42.80;;;;;;5087745;28;20024;-73
2022/04/20 05:58:18;;;;;;;2.88;1.98;;;14.70;42.80;;;;;;5112694;27;20424;-72
2022/04/20 06:00:44;;;;;;;2.47;1.83;;;15.10;42.20;;;;;;5082494;28;20070;-73
2022/04/20 06:03:11;;;;;;;2.30;1.75;;;15.70;41.20;;;;;;5105442;27;20030;-73
2022/04/20 06:05:36;;;;;;;1.70;1.60;;;16.50;40.30;;;;;;5106885;27;20035;-72
2022/04/20 06:08:02;;;;;;;3.65;1.63;;;17.40;38.90;;;;;;5111416;27;20047;-73
2022/04/20 06:10:29;;;;;;;2.83;1.60;;;18.30;37.90;;;;;;5118895;27;20507;-73
2022/04/20 06:12:55;;;;;;;3.10;2.03;;;19.00;36.70;;;;;;5116052;27;20019;-73
2022/04/20 06:15:21;;;;;;;2.65;1.90;;;18.60;34.90;;;;;;5105705;27;20450;-73
2022/04/20 06:17:47;;;;;;;2.05;1.75;;;18.60;35.50;;;;;;5087608;28;20051;-73
2022/04/20 06:20:12;;;;;;;2.00;1.65;;;19.10;35.30;;;;;;5104977;28;20019;-73
2022/04/20 06:22:38;;;;;;;2.00;1.80;;;19.30;34.40;;;;;;5101495;28;20024;-73
2022/04/20 06:25:04;;;;;;;3.35;1.70;;;19.10;34.10;;;;;;5108760;27;20098;-72
2022/04/20 06:27:30;;;;;;;2.22;1.40;;;19.80;34.20;;;;;;5094709;28;20479;-74
2022/04/20 06:29:56;;;;;;;1.85;1.50;;;20.40;33.70;;;;;;5096575;28;20084;-72
2022/04/20 06:32:24;;;;;;;2.67;1.90;;;21.20;33.00;;;;;;5092124;28;20027;-72
2022/04/20 06:34:53;;;;;;;2.70;1.70;;;21.50;31.70;;;;;;5103780;28;20016;-72
2022/04/20 06:37:19;;;;;;;2.05;1.77;;;21.30;31.70;;;;;;5106849;28;20024;-73
2022/04/20 06:39:45;;;;;;;2.72;1.90;;;21.90;31.30;;;;;;5101256;28;20032;-71
2022/04/20 06:42:11;;;;;;;3.28;2.08;;;21.50;30.20;;;;;;5106718;28;20055;-71
2022/04/20 06:44:37;;;;;;;4.40;2.05;;;21.20;31.10;;;;;;5100289;28;20388;-72
2022/04/20 06:47:03;;;;;;;4.20;2.03;;;21.00;31.30;;;;;;5079244;28;20078;-71
2022/04/20 06:49:28;;;;;;;3.00;1.73;;;21.10;31.30;;;;;;5092841;28;20024;-71
2022/04/20 07:00:08;;;;;;;1.58;1.42;;;22.20;30.40;;;;;;5114617;27;20064;-73
2022/04/20 07:02:34;;;;;;;3.78;2.50;;;22.80;30.00;;;;;;5126955;27;20028;-73
2022/04/20 07:05:00;;;;;;;2.28;1.60;;;22.30;29.00;;;;;;5119068;27;20072;-72
2022/04/20 07:07:25;;;;;;;3.15;1.92;;;21.80;29.90;;;;;;5104723;27;20051;-72
2022/04/20 07:09:51;;;;;;;2.30;1.60;;;21.70;30.00;;;;;;5115161;27;20012;-71
2022/04/20 07:12:16;;;;;;;3.70;1.77;;;21.80;29.90;;;;;;5110399;28;20023;-72
2022/04/20 07:14:42;;;;;;;2.50;1.90;;;21.50;30.00;;;;;;5093669;28;20022;-72
2022/04/20 07:17:07;;;;;;;2.92;1.80;;;20.90;30.30;;;;;;5100323;28;20502;-73
2022/04/20 07:19:34;;;;;;;2.40;1.90;;;20.90;30.90;;;;;;5101953;28;20038;-72
2022/04/20 07:22:00;;;;;;;3.22;1.60;;;21.50;30.60;;;;;;5113802;27;20020;-72
2022/04/20 07:24:26;;;;;;;2.30;1.90;;;22.30;30.10;;;;;;5107174;28;20043;-72
2022/04/20 07:26:51;;;;;;;3.08;2.08;;;22.30;29.60;;;;;;5087370;28;20039;-72
2022/04/20 07:29:17;;;;;;;3.65;2.05;;;22.20;29.60;;;;;;5111559;27;20030;-72
2022/04/20 07:31:42;;;;;;;2.45;1.80;;;22.00;29.80;;;;;;5120911;27;20027;-72
2022/04/20 07:34:08;;;;;;;1.55;1.42;;;22.90;29.70;;;;;;5118526;27;20016;-72
2022/04/20 07:36:33;;;;;;;2.22;1.88;;;23.70;29.20;;;;;;5099469;27;20633;-72
2022/04/20 07:38:59;;;;;;;2.72;1.73;;;23.90;28.70;;;;;;5110763;28;20146;-72
2022/04/20 07:41:25;;;;;;;2.42;1.80;;;23.60;28.30;;;;;;5110781;27;20489;-72
2022/04/20 07:43:51;;;;;;;2.42;1.88;;;23.50;28.50;;;;;;5106649;27;20147;-72
2022/04/20 07:46:18;;;;;;;2.72;1.70;;;23.30;28.70;;;;;;5105417;27;20106;-72
2022/04/20 07:48:43;;;;;;;2.47;1.80;;;23.40;28.90;;;;;;5106695;27;20099;-72
2022/04/20 07:51:09;;;;;;;2.25;1.60;;;23.80;28.80;;;;;;5114610;27;20455;-72
2022/04/20 07:53:35;;;;;;;2.05;1.30;;;24.30;28.40;;;;;;5112245;27;20106;-72
2022/04/20 07:56:01;;;;;;;2.38;1.63;;;24.60;28.30;;;;;;5089418;28;20424;-72
2022/04/20 07:58:26;;;;;;;2.42;1.60;;;24.70;28.00;;;;;;5102711;27;20047;-72
2022/04/20 08:00:53;;;;;;;2.10;1.60;;;24.40;28.00;;;;;;5101542;28;20492;-72
2022/04/20 08:03:19;;;;;;;1.90;1.30;;;24.60;28.20;;;;;;5104505;27;20051;-72
2022/04/20 08:06:02;;;;;;;1.83;1.55;;;25.20;27.90;;;;;;5105903;27;20113;-72
2022/04/20 08:08:28;;;;;;;2.15;1.50;;;24.80;27.60;;;;;;5104524;28;20035;-72
2022/04/20 08:10:53;;;;;;;2.85;1.92;;;25.00;27.50;;;;;;5103182;28;20016;-72
2022/04/20 08:16:03;;;;;;;2.15;1.63;;;22.60;28.50;;;;;;5107970;28;20495;-72
2022/04/20 08:18:29;;;;;;;2.53;1.60;;;21.90;29.20;;;;;;5102856;27;20066;-72
2022/04/20 08:20:54;;;;;;;2.33;1.80;;;21.80;29.60;;;;;;5107604;27;20425;-72
2022/04/20 08:23:20;;;;;;;4.18;2.08;;;21.30;29.90;;;;;;5105513;28;20031;-71
2022/04/20 08:25:46;;;;;;;2.63;1.70;;;20.60;30.80;;;;;;5089097;28;20024;-71
2022/04/20 08:28:12;;;;;;;2.55;2.03;;;20.70;31.70;;;;;;5103462;28;20019;-71
2022/04/20 08:30:40;;;;;;;2.10;1.70;;;20.20;32.10;;;;;;5102865;28;20510;-71
2022/04/20 08:33:07;;;;;;;3.72;1.95;;;20.10;32.80;;;;;;5107700;27;20023;-71
2022/04/20 08:35:37;;;;;;;3.80;2.00;;;20.10;32.70;;;;;;5109750;27;20038;-70
2022/04/20 08:38:04;;;;;;;3.28;1.73;;;19.20;33.10;;;;;;5108141;28;20023;-72
2022/04/20 08:40:31;;;;;;;3.80;2.10;;;18.80;34.20;;;;;;5087204;28;20050;-72
2022/04/20 08:43:02;;;;;;;2.88;2.15;;;18.30;34.50;;;;;;5104471;28;20110;-72
2022/04/20 08:45:28;;;;;;;3.90;1.70;;;17.70;35.20;;;;;;5106022;28;20042;-71
2022/04/20 08:47:56;;;;;;;2.20;1.88;;;17.50;35.90;;;;;;5107626;27;20023;-71
2022/04/20 08:50:23;;;;;;;3.55;2.08;;;17.10;36.00;;;;;;5100564;28;20154;-71
2022/04/20 08:52:50;;;;;;;1.80;1.40;;;16.70;36.30;;;;;;5103106;28;20036;-72
2022/04/20 08:55:18;;;;;;;2.70;1.75;;;16.60;37.10;;;;;;5104594;28;20019;-71
2022/04/20 08:57:45;;;;;;;2.35;1.80;;;16.60;37.50;;;;;;5099051;28;20028;-71
2022/04/20 09:00:15;;;;;;;2.38;1.90;;;16.60;37.80;;;;;;5106317;27;20115;-71
2022/04/20 09:02:41;;;;;;;4.07;1.85;;;16.80;38.00;;;;;;5110781;27;20766;-72
2022/04/20 09:05:07;;;;;;;3.22;2.03;;;16.90;37.80;;;;;;5110797;27;20039;-71
2022/04/20 09:07:32;;;;;;;2.53;1.70;;;16.80;37.30;;;;;;5107961;27;20036;-71
2022/04/20 09:10:00;;;;;;;2.05;1.75;;;16.90;37.50;;;;;;5100584;27;20022;-72
2022/04/20 09:12:27;;;;;;;2.03;1.83;;;16.90;36.80;;;;;;5105761;27;20031;-72
2022/04/20 09:14:53;;;;;;;3.70;1.85;;;16.80;36.60;;;;;;5094875;28;20362;-72
2022/04/20 09:17:20;;;;;;;2.33;2.00;;;16.70;36.40;;;;;;5086350;28;20020;-72
2022/04/20 09:19:48;;;;;;;2.22;1.88;;;16.70;36.80;;;;;;5091601;28;20024;-72
2022/04/20 09:22:23;;;;;;;3.05;2.00;;;16.60;37.10;;;;;;5092742;28;20081;-72
2022/04/20 09:25:12;;;;;;;3.80;1.60;;;16.60;37.30;;;;;;5080724;28;20069;-71
2022/04/20 09:27:40;;;;;;;2.28;1.83;;;16.60;37.50;;;;;;5087278;28;20423;-72
2022/04/20 09:30:14;;;;;;;3.10;2.10;;;16.80;37.80;;;;;;5104319;28;20020;-71
2022/04/20 09:32:45;;;;;;;4.15;2.20;;;16.90;37.10;;;;;;5088483;28;20104;-71
2022/04/20 09:35:16;;;;;;;2.97;2.58;;;16.80;37.60;;;;;;5107984;27;20024;-71
2022/04/20 09:37:43;;;;;;;3.22;2.22;;;16.70;37.80;;;;;;5096849;28;20027;-71
2022/04/20 09:40:14;;;;;;;4.65;2.30;;;16.60;38.10;;;;;;5106844;28;21083;-72
2022/04/20 09:43:04;;;;;;;2.42;1.88;;;16.50;38.00;;;;;;5101559;27;20039;-71
2022/04/20 09:45:30;;;;;;;1.70;1.60;;;16.60;38.10;;;;;;5101593;27;20396;-72
2022/04/20 09:50:42;;;;;;;2.67;1.90;;;16.70;37.80;;;;;;5097951;28;20047;-72
2022/04/20 09:53:12;;;;;;;2.60;2.00;;;16.60;37.90;;;;;;5095434;28;20598;-72
2022/04/20 09:55:39;;;;;;;1.67;1.52;;;16.70;38.20;;;;;;5105540;27;20028;-71
2022/04/20 09:58:12;;;;;;;4.13;2.20;;;16.80;38.00;;;;;;5102588;27;20028;-72
2022/04/20 10:00:56;;;;;;;2.22;1.80;;;16.90;37.00;;;;;;5102497;27;20404;-71
2022/04/20 10:03:24;;;;;;;2.58;2.00;;;16.80;37.10;;;;;;5109511;27;20059;-71
2022/04/20 10:05:49;;;;;;;3.78;2.40;;;16.70;36.70;;;;;;5102086;28;20016;-71
2022/04/20 10:08:15;;;;;;;2.35;1.90;;;16.50;37.10;;;;;;5105147;28;20038;-72
2022/04/20 10:10:42;;;;;;;2.85;1.90;;;16.60;37.80;;;;;;5104218;28;20038;-71
2022/04/20 10:13:10;;;;;;;3.00;2.20;;;16.70;38.00;;;;;;5099319;28;20032;-72
2022/04/20 10:18:21;;;;;;;2.45;1.90;;;16.80;37.70;;;;;;5102856;28;20405;-72
2022/04/20 10:20:54;;;;;;;2.90;2.10;;;17.00;37.90;;;;;;5102991;28;20173;-71
2022/04/20 10:23:21;;;;;;;2.13;1.90;;;17.00;37.90;;;;;;5098354;27;20024;-71
2022/04/20 10:25:49;;;;;;;2.30;1.42;;;17.10;37.70;;;;;;5102606;28;20051;-70
2022/04/20 10:28:25;;;;;;;2.40;2.10;;;17.40;37.60;;;;;;5099656;28;20039;-70
2022/04/20 10:31:18;;;;;;;1.80;1.63;;;17.40;37.00;;;;;;5100834;28;20032;-70
2022/04/20 10:33:45;;;;;;;2.55;2.00;;;17.50;36.80;;;;;;5063724;28;20464;-70
2022/04/20 10:36:15;;;;;;;3.35;1.73;;;17.50;36.80;;;;;;5081436;28;20020;-70
2022/04/20 10:38:45;;;;;;;2.53;1.80;;;17.60;36.60;;;;;;5099702;28;20060;-71
2022/04/20 10:41:18;;;;;;;3.45;1.83;;;17.50;36.70;;;;;;5103477;28;20052;-71
2022/04/20 10:43:44;;;;;;;2.65;1.80;;;17.50;36.20;;;;;;5086307;28;20023;-72
2022/04/20 10:46:11;;;;;;;3.00;1.90;;;17.50;36.40;;;;;;5106480;28;20515;-70
2022/04/20 10:48:51;;;;;;;2.53;1.80;;;17.50;36.80;;;;;;5102626;28;20047;-72
2022/04/20 10:51:22;;;;;;;2.13;1.50;;;17.60;36.80;;;;;;5095192;28;20071;-71
2022/04/20 10:53:50;;;;;;;1.90;1.60;;;17.70;36.50;;;;;;5102894;28;20019;-71
2022/04/20 10:56:19;;;;;;;2.35;1.63;;;17.80;36.60;;;;;;5107628;28;20052;-71
2022/04/20 10:59:07;;;;;;;3.00;2.00;;;18.00;36.60;;;;;;5088260;28;20024;-71
2022/04/20 11:01:58;;;;;;;3.00;2.03;;;18.00;36.30;;;;;;5099557;28;20038;-70
2022/04/20 11:04:41;;;;;;;4.07;2.00;;;17.70;36.30;;;;;;5096424;28;20027;-70
2022/04/20 11:07:07;;;;;;;2.42;1.70;;;17.60;36.80;;;;;;5075486;28;20061;-70
2022/04/20 11:09:45;;;;;;;2.35;2.10;;;17.60;37.00;;;;;;5100925;28;20430;-70
2022/04/20 11:21:07;;;;;;;1.75;1.58;;;17.80;37.10;;;;;;5103009;28;20508;-70
2022/04/20 11:23:54;;;;;;;1.73;1.50;;;18.10;37.00;;;;;;5085299;28;20059;-70
2022/04/20 11:26:37;;;;;;;2.20;1.70;;;18.20;36.60;;;;;;5085965;28;20616;-70
2022/04/20 11:29:16;;;;;;;2.47;2.20;;;18.40;36.40;;;;;;5105279;28;20491;-70
2022/04/20 11:31:47;;;;;;;1.67;1.38;;;18.20;35.70;;;;;;5101548;28;20079;-71
2022/04/20 11:34:15;;;;;;;2.47;1.70;;;18.30;36.50;;;;;;5097181;28;20055;-71
2022/04/20 11:36:43;;;;;;;3.30;1.80;;;18.30;36.90;;;;;;5093011;28;20440;-71
2022/04/20 11:39:09;;;;;;;2.30;1.67;;;18.10;36.30;;;;;;5099392;28;20073;-70
2022/04/20 11:41:35;;;;;;;2.63;1.90;;;18.00;36.60;;;;;;5098922;28;20028;-70
2022/04/20 11:44:02;;;;;;;5.97;2.60;;;18.00;36.90;;;;;;5092342;28;20024;-70
2022/04/20 11:46:27;;;;;;;3.88;2.35;;;17.90;36.70;;;;;;5094047;28;20032;-70
2022/04/20 11:48:53;;;;;;;2.22;1.80;;;17.80;36.60;;;;;;5106213;27;20039;-70
2022/04/20 11:51:28;;;;;;;1.67;1.58;;;17.70;37.00;;;;;;5096288;28;20035;-70
2022/04/20 11:53:55;;;;;;;2.65;2.00;;;18.00;37.00;;;;;;5105445;28;20055;-69
2022/04/20 11:56:38;;;;;;;1.80;1.70;;;18.20;36.70;;;;;;5088016;28;20016;-69
2022/04/20 11:59:08;;;;;;;2.55;1.77;;;18.20;36.90;;;;;;5085628;28;20620;-70
2022/04/20 12:01:36;;;;;;;3.13;1.60;;;18.40;36.60;;;;;;5101037;28;20056;-71
2022/04/20 12:04:13;;;;;;;3.05;1.40;;;18.60;36.60;;;;;;5106078;28;20024;-71
2022/04/20 12:06:49;;;;;;;3.08;1.50;;;18.80;36.40;;;;;;5101975;28;20059;-72
2022/04/20 12:09:18;;;;;;;1.80;1.70;;;19.00;36.10;;;;;;5081663;27;20496;-71
2022/04/20 12:11:44;;;;;;;2.75;1.90;;;18.80;36.20;;;;;;5103738;27;20028;-72
2022/04/20 12:14:10;;;;;;;2.17;1.65;;;18.60;36.60;;;;;;5087461;28;20024;-71
2022/04/20 12:16:36;;;;;;;4.15;2.15;;;18.50;36.70;;;;;;5107439;27;20058;-70
2022/04/20 12:19:02;;;;;;;3.10;2.10;;;18.50;36.70;;;;;;5113195;27;20094;-72
2022/04/20 12:21:42;;;;;;;2.17;1.98;;;18.40;36.90;;;;;;5107845;28;20026;-71
2022/04/20 12:24:26;;;;;;;2.22;1.88;;;18.30;37.10;;;;;;5108967;28;20077;-70
2022/04/20 12:26:54;;;;;;;2.80;2.10;;;18.50;37.00;;;;;;5114412;27;20024;-71
2022/04/20 12:29:22;;;;;;;4.68;2.35;;;18.70;36.70;;;;;;5088714;28;20402;-70
2022/04/20 12:31:51;;;;;;;3.30;2.38;;;18.60;36.90;;;;;;5087554;28;20028;-71
2022/04/20 12:34:19;;;;;;;3.13;2.10;;;18.40;37.20;;;;;;5123496;27;20025;-71
2022/04/20 12:36:51;;;;;;;3.22;2.15;;;18.40;37.40;;;;;;5107940;27;20024;-71
2022/04/20 12:39:27;;;;;;;;;;;18.30;37.50;;;;;;5096638;28;20022;-72
2022/04/20 12:42:09;;;;;;;3.22;2.45;;;18.40;37.80;;;;;;5107162;27;20018;-71
2022/04/20 12:44:52;;;;;;;3.65;2.25;;;18.50;37.80;;;;;;5094660;28;20050;-71
2022/04/20 12:47:18;;;;;;;2.15;1.88;;;18.60;37.60;;;;;;5101853;28;20512;-71
2022/04/20 12:49:44;;;;;;;2.38;2.00;;;18.70;37.20;;;;;;5102911;28;20055;-71
2022/04/20 12:52:13;;;;;;;2.63;2.00;;;18.60;37.40;;;;;;5106094;27;20097;-71
2022/04/20 12:54:39;;;;;;;2.78;1.98;;;18.60;37.40;;;;;;5107479;28;20058;-71
2022/04/20 13:03:02;;;;;;;2.63;1.58;;;19.10;37.60;;;;;;5100822;28;20035;-73
2022/04/20 13:05:28;;;;;;;1.83;1.58;;;19.40;37.20;;;;;;5084194;28;20095;-72
2022/04/20 13:07:53;;;;;;;2.15;1.85;;;19.70;37.00;;;;;;5102742;28;20115;-71
2022/04/20 13:10:19;;;;;;;2.63;2.10;;;19.80;36.70;;;;;;5114165;27;20091;-72
2022/04/20 13:12:48;;;;;;;2.53;2.05;;;19.90;36.40;;;;;;5109790;27;20501;-72
2022/04/20 13:15:13;;;;;;;2.33;1.60;;;19.80;36.50;;;;;;5107489;28;20024;-71
2022/04/20 13:17:39;;;;;;;2.47;2.15;;;20.00;36.20;;;;;;5081632;28;20384;-71
2022/04/20 13:20:04;;;;;;;2.50;1.73;;;19.90;36.20;;;;;;5104867;28;20031;-71
2022/04/20 13:22:30;;;;;;;4.18;2.35;;;19.80;36.50;;;;;;5103828;28;20403;-70
2022/04/20 13:27:55;;;;;;;3.65;2.30;;;19.70;36.20;;;;;;5102598;27;20176;-70
2022/04/20 13:30:25;;;;;;;2.70;2.03;;;19.60;36.50;;;;;;5107123;27;20035;-70
2022/04/20 13:32:55;;;;;;;2.47;1.90;;;19.50;36.30;;;;;;5104935;27;20020;-70
2022/04/20 13:35:21;;;;;;;3.22;2.20;;;19.60;36.40;;;;;;5103228;28;20478;-70
2022/04/20 13:37:47;;;;;;;2.40;1.70;;;19.40;36.10;;;;;;5089751;28;20053;-70
2022/04/20 13:40:12;;;;;;;3.47;1.70;;;19.40;36.40;;;;;;5107839;27;20095;-70